Etusivu
METAR-TAF:

METAR-TAF

Lentoasemat :

Kuwaitin kansainvälinen lentoasema

Kuwait, Kuwait

Leveyspiiri: 29-13N, Pituuspiiri: 047-59E, korkeus merenpinnasta: 55 m

Tämänhetkinen sää

Tämä raportti tehtiin 55 minuuttia sitten, kello 04.00 UTC
Tuuli 3 kn etelästä/lounaasta
Lämpötila 10°C
Kosteus 100%
Ilmanpaine 1022 hPa
Näkyvyys: 2500 m
selkeää
utua

METAR: OKBK 130400Z 21003KT 2500 BR SKC 10/10 Q1022 NOSIG

Aika: 07:55 (04:55 UTC)

Sääennuste

Tämä raportti tehtiin 6 tuntia ja 10 minuuttia sitten, kello 22.45 UTC
Ennuste voimassa 13. päivästä klo 00 UTC - 14. päivään klo 06 UTC
Tuuli 3 kn eri suunnista
Näkyvyys: 7000 m
selkeää
Ajoittain
13. päivästä klo 00 UTC - 13. päivään klo 04 UTC
Näkyvyys: 4000 m
utua

TAF: OKBK 122245Z 1300/1406 VRB03KT 7000 SKC TEMPO 1300/1304 4000 BR

Säähavainnot ja -ennusteet yli 4000 lentoasemalta (METAR- ja TAF-raportit).

Käytössä olevat sääasemat on merkitty karttaan keltaisilla ja punaisilla pisteillä.

Aseta hiiri pisteen päälle nähdäksesi sääaseman nimen.

Klikkaa sitten nähdäksesi säähavainnot ja -ennusteet.

Kartan vaihtaminen: klikkaa mustalla rastilla varustettuja vihreitä pisteitä, niin voit zoomata sisään; viivalla varustettua vihreää pistettä, niin voit zoomata ulos tai vihreitä nuolia, niin pääset viereisille kartoille.


METAR-TAF: